KCDN/CDN METAR and TAF weather

Enter ICAO airport designator
Station Type Date Time Source
KCDN METAR 2019/02/23 22:55 UTC NOAA

KCDN 232255Z AUTO 03005KT 1 3/4SM BR OVC004 07/06 A3017 RMK AO2


Station Type Date Time Source
KCDN Decoded METAR 2019/02/23 22:55 UTC NOAA

Station name not available
Feb 23, 2019 - 05:55 PM EST / 2019.02.23 2255 UTC
Wind: from the NNE (030 degrees) at 6 MPH (5 KT):0
Visibility: 1 3/4 mile(s):0
Sky conditions: overcast
Weather: mist
Temperature: 44 F (7 C)
Dew Point: 42 F (6 C)
Relative Humidity: 93%
Pressure (altimeter): 30.17 in. Hg (1021 hPa)
ob: KCDN 232255Z AUTO 03005KT 1 3/4SM BR OVC004 07/06 A3017 RMK AO2
cycle: 23

Station Type Date Time Source
KCDN TAF UTC NOAA

Error!


Example: see airport list